sensor_id;sensor_type;location;lat;lon;timestamp;pressure;altitude;pressure_sealevel;temperature;humidity
55733;BME280;41637;52.364;9.910;2023-02-14T00:01:44;102930.88;;;1.05;99.51
55733;BME280;41637;52.364;9.910;2023-02-14T00:04:12;102930.66;;;1.01;99.31
55733;BME280;41637;52.364;9.910;2023-02-14T00:06:39;102928.39;;;0.97;99.28
55733;BME280;41637;52.364;9.910;2023-02-14T00:09:11;102928.34;;;0.93;99.25
55733;BME280;41637;52.364;9.910;2023-02-14T00:11:38;102927.40;;;0.91;99.29
55733;BME280;41637;52.364;9.910;2023-02-14T00:14:06;102923.51;;;0.88;99.33
55733;BME280;41637;52.364;9.910;2023-02-14T00:16:52;102921.84;;;0.86;99.40
55733;BME280;41637;52.364;9.910;2023-02-14T00:19:19;102924.69;;;0.84;99.59
55733;BME280;41637;52.364;9.910;2023-02-14T00:21:47;102932.21;;;0.83;99.79
55733;BME280;41637;52.364;9.910;2023-02-14T00:24:16;102929.60;;;0.83;99.95
55733;BME280;41637;52.364;9.910;2023-02-14T00:26:43;102929.15;;;0.81;99.87
55733;BME280;41637;52.364;9.910;2023-02-14T00:29:13;102924.34;;;0.79;100.00
55733;BME280;41637;52.364;9.910;2023-02-14T00:31:40;102920.75;;;0.77;99.92
55733;BME280;41637;52.364;9.910;2023-02-14T00:34:08;102916.48;;;0.75;99.98
55733;BME280;41637;52.364;9.910;2023-02-14T00:36:35;102918.06;;;0.74;99.88
55733;BME280;41637;52.364;9.910;2023-02-14T00:39:07;102919.01;;;0.72;99.87
55733;BME280;41637;52.364;9.910;2023-02-14T00:41:35;102921.48;;;0.72;99.90
55733;BME280;41637;52.364;9.910;2023-02-14T00:44:02;102924.25;;;0.72;99.99
55733;BME280;41637;52.364;9.910;2023-02-14T00:46:29;102925.52;;;0.71;99.98
55733;BME280;41637;52.364;9.910;2023-02-14T00:48:56;102928.86;;;0.69;100.00
55733;BME280;41637;52.364;9.910;2023-02-14T00:51:23;102925.95;;;0.68;99.99
55733;BME280;41637;52.364;9.910;2023-02-14T00:53:51;102926.52;;;0.67;100.00
55733;BME280;41637;52.364;9.910;2023-02-14T00:56:18;102928.31;;;0.65;99.97
55733;BME280;41637;52.364;9.910;2023-02-14T00:58:45;102930.09;;;0.65;100.00
55733;BME280;41637;52.364;9.910;2023-02-14T01:01:16;102932.39;;;0.64;99.99
55733;BME280;41637;52.364;9.910;2023-02-14T01:03:44;102931.54;;;0.63;100.00
55733;BME280;41637;52.364;9.910;2023-02-14T01:06:11;102931.55;;;0.62;100.00
55733;BME280;41637;52.364;9.910;2023-02-14T01:08:38;102932.98;;;0.61;100.00
55733;BME280;41637;52.364;9.910;2023-02-14T01:11:14;102933.33;;;0.61;100.00
55733;BME280;41637;52.364;9.910;2023-02-14T01:13:42;102932.12;;;0.61;100.00
55733;BME280;41637;52.364;9.910;2023-02-14T01:16:12;102930.94;;;0.60;100.00
55733;BME280;41637;52.364;9.910;2023-02-14T01:18:40;102929.02;;;0.60;100.00
55733;BME280;41637;52.364;9.910;2023-02-14T01:23:41;102926.14;;;0.63;100.00
55733;BME280;41637;52.364;9.910;2023-02-14T01:26:09;102925.20;;;0.65;100.00
55733;BME280;41637;52.364;9.910;2023-02-14T01:28:36;102923.08;;;0.66;100.00
55733;BME280;41637;52.364;9.910;2023-02-14T01:31:11;102925.20;;;0.65;100.00
55733;BME280;41637;52.364;9.910;2023-02-14T01:33:39;102925.41;;;0.64;100.00
55733;BME280;41637;52.364;9.910;2023-02-14T01:36:14;102927.17;;;0.63;100.00
55733;BME280;41637;52.364;9.910;2023-02-14T01:38:41;102926.90;;;0.61;100.00
55733;BME280;41637;52.364;9.910;2023-02-14T01:41:08;102924.12;;;0.56;100.00
55733;BME280;41637;52.364;9.910;2023-02-14T01:46:22;102922.85;;;0.48;100.00
55733;BME280;41637;52.364;9.910;2023-02-14T01:48:49;102923.98;;;0.45;100.00
55733;BME280;41637;52.364;9.910;2023-02-14T01:51:18;102924.48;;;0.46;100.00
55733;BME280;41637;52.364;9.910;2023-02-14T01:53:45;102923.16;;;0.49;100.00
55733;BME280;41637;52.364;9.910;2023-02-14T01:56:20;102921.70;;;0.51;100.00
55733;BME280;41637;52.364;9.910;2023-02-14T01:58:51;102917.79;;;0.53;100.00
55733;BME280;41637;52.364;9.910;2023-02-14T02:01:19;102917.05;;;0.54;100.00
55733;BME280;41637;52.364;9.910;2023-02-14T02:03:50;102919.64;;;0.55;100.00
55733;BME280;41637;52.364;9.910;2023-02-14T02:06:26;102915.78;;;0.56;100.00
55733;BME280;41637;52.364;9.910;2023-02-14T02:09:18;102913.85;;;0.56;100.00
55733;BME280;41637;52.364;9.910;2023-02-14T02:11:47;102919.02;;;0.58;100.00
55733;BME280;41637;52.364;9.910;2023-02-14T02:14:17;102916.05;;;0.58;100.00
55733;BME280;41637;52.364;9.910;2023-02-14T02:24:17;102901.60;;;0.63;100.00
55733;BME280;41637;52.364;9.910;2023-02-14T02:26:48;102898.41;;;0.64;100.00
55733;BME280;41637;52.364;9.910;2023-02-14T02:30:00;102892.34;;;0.64;100.00
55733;BME280;41637;52.364;9.910;2023-02-14T02:36:00;102883.98;;;0.64;100.00
55733;BME280;41637;52.364;9.910;2023-02-14T02:38:51;102880.33;;;0.63;100.00
55733;BME280;41637;52.364;9.910;2023-02-14T02:44:55;102873.01;;;0.64;100.00
55733;BME280;41637;52.364;9.910;2023-02-14T02:48:02;102868.52;;;0.63;100.00
55733;BME280;41637;52.364;9.910;2023-02-14T02:56:13;102871.55;;;0.60;100.00
55733;BME280;41637;52.364;9.910;2023-02-14T02:59:04;102870.78;;;0.58;100.00
55733;BME280;41637;52.364;9.910;2023-02-14T03:01:35;102871.48;;;0.58;100.00
55733;BME280;41637;52.364;9.910;2023-02-14T03:04:06;102872.55;;;0.57;100.00
55733;BME280;41637;52.364;9.910;2023-02-14T03:06:53;102866.71;;;0.55;100.00
55733;BME280;41637;52.364;9.910;2023-02-14T03:12:13;102866.60;;;0.53;100.00
55733;BME280;41637;52.364;9.910;2023-02-14T03:14:49;102861.58;;;0.52;100.00
55733;BME280;41637;52.364;9.910;2023-02-14T03:17:29;102858.86;;;0.51;100.00
55733;BME280;41637;52.364;9.910;2023-02-14T03:20:13;102856.75;;;0.47;100.00
55733;BME280;41637;52.364;9.910;2023-02-14T03:23:07;102859.95;;;0.45;100.00
55733;BME280;41637;52.364;9.910;2023-02-14T03:28:38;102856.05;;;0.36;100.00
55733;BME280;41637;52.364;9.910;2023-02-14T03:31:31;102852.34;;;0.33;100.00
55733;BME280;41637;52.364;9.910;2023-02-14T03:34:09;102848.34;;;0.33;100.00
55733;BME280;41637;52.364;9.910;2023-02-14T03:36:54;102845.02;;;0.34;100.00
55733;BME280;41637;52.364;9.910;2023-02-14T03:39:30;102845.19;;;0.34;100.00
55733;BME280;41637;52.364;9.910;2023-02-14T03:42:06;102841.30;;;0.35;100.00
55733;BME280;41637;52.364;9.910;2023-02-14T03:44:36;102836.94;;;0.36;100.00
55733;BME280;41637;52.364;9.910;2023-02-14T03:47:11;102836.88;;;0.37;100.00
55733;BME280;41637;52.364;9.910;2023-02-14T03:49:46;102835.16;;;0.37;100.00
55733;BME280;41637;52.364;9.910;2023-02-14T03:52:14;102832.88;;;0.37;100.00
55733;BME280;41637;52.364;9.910;2023-02-14T03:54:45;102830.64;;;0.37;100.00
55733;BME280;41637;52.364;9.910;2023-02-14T03:57:19;102828.75;;;0.36;100.00
55733;BME280;41637;52.364;9.910;2023-02-14T03:59:47;102833.51;;;0.34;100.00
55733;BME280;41637;52.364;9.910;2023-02-14T04:02:35;102829.56;;;0.33;100.00
55733;BME280;41637;52.364;9.910;2023-02-14T04:05:11;102822.52;;;0.30;100.00
55733;BME280;41637;52.364;9.910;2023-02-14T04:07:51;102821.23;;;0.28;100.00
55733;BME280;41637;52.364;9.910;2023-02-14T04:10:19;102824.09;;;0.25;100.00
55733;BME280;41637;52.364;9.910;2023-02-14T04:12:47;102825.56;;;0.23;100.00
55733;BME280;41637;52.364;9.910;2023-02-14T04:15:14;102820.95;;;0.21;100.00
55733;BME280;41637;52.364;9.910;2023-02-14T04:17:44;102821.91;;;0.18;100.00
55733;BME280;41637;52.364;9.910;2023-02-14T04:20:30;102823.55;;;0.16;100.00
55733;BME280;41637;52.364;9.910;2023-02-14T04:22:57;102821.69;;;0.14;100.00
55733;BME280;41637;52.364;9.910;2023-02-14T04:25:24;102818.85;;;0.12;100.00
55733;BME280;41637;52.364;9.910;2023-02-14T04:27:52;102819.39;;;0.11;100.00
55733;BME280;41637;52.364;9.910;2023-02-14T04:30:19;102814.09;;;0.09;100.00
55733;BME280;41637;52.364;9.910;2023-02-14T04:32:48;102812.07;;;0.07;100.00
55733;BME280;41637;52.364;9.910;2023-02-14T04:35:15;102813.02;;;0.04;100.00
55733;BME280;41637;52.364;9.910;2023-02-14T04:37:42;102811.85;;;0.03;100.00
55733;BME280;41637;52.364;9.910;2023-02-14T04:40:09;102812.60;;;0.02;100.00
55733;BME280;41637;52.364;9.910;2023-02-14T04:42:36;102812.27;;;0.01;100.00
55733;BME280;41637;52.364;9.910;2023-02-14T04:45:04;102815.44;;;-0.01;100.00
55733;BME280;41637;52.364;9.910;2023-02-14T04:47:31;102810.11;;;-0.03;100.00
55733;BME280;41637;52.364;9.910;2023-02-14T04:49:58;102804.95;;;-0.04;100.00
55733;BME280;41637;52.364;9.910;2023-02-14T04:52:25;102805.14;;;-0.04;100.00
55733;BME280;41637;52.364;9.910;2023-02-14T04:54:52;102804.96;;;-0.05;100.00
55733;BME280;41637;52.364;9.910;2023-02-14T04:57:19;102798.58;;;-0.06;100.00
55733;BME280;41637;52.364;9.910;2023-02-14T04:59:46;102800.55;;;-0.07;100.00
55733;BME280;41637;52.364;9.910;2023-02-14T05:02:14;102799.73;;;-0.09;100.00
55733;BME280;41637;52.364;9.910;2023-02-14T05:04:40;102801.92;;;-0.12;100.00
55733;BME280;41637;52.364;9.910;2023-02-14T05:07:08;102806.04;;;-0.15;100.00
55733;BME280;41637;52.364;9.910;2023-02-14T05:09:37;102811.53;;;-0.18;100.00
55733;BME280;41637;52.364;9.910;2023-02-14T05:12:06;102809.77;;;-0.22;100.00
55733;BME280;41637;52.364;9.910;2023-02-14T05:14:34;102807.77;;;-0.25;100.00
55733;BME280;41637;52.364;9.910;2023-02-14T05:17:01;102805.77;;;-0.27;100.00
55733;BME280;41637;52.364;9.910;2023-02-14T05:19:31;102807.63;;;-0.31;100.00
55733;BME280;41637;52.364;9.910;2023-02-14T05:21:58;102803.46;;;-0.36;100.00
55733;BME280;41637;52.364;9.910;2023-02-14T05:24:24;102799.76;;;-0.41;100.00
55733;BME280;41637;52.364;9.910;2023-02-14T05:26:51;102794.27;;;-0.42;100.00
55733;BME280;41637;52.364;9.910;2023-02-14T05:29:19;102793.86;;;-0.45;100.00
55733;BME280;41637;52.364;9.910;2023-02-14T05:31:46;102794.84;;;-0.49;100.00
55733;BME280;41637;52.364;9.910;2023-02-14T05:34:13;102795.77;;;-0.51;100.00
55733;BME280;41637;52.364;9.910;2023-02-14T05:36:40;102795.67;;;-0.53;100.00
55733;BME280;41637;52.364;9.910;2023-02-14T05:39:08;102795.67;;;-0.53;100.00
55733;BME280;41637;52.364;9.910;2023-02-14T05:41:35;102789.23;;;-0.53;100.00
55733;BME280;41637;52.364;9.910;2023-02-14T05:44:02;102795.38;;;-0.54;100.00
55733;BME280;41637;52.364;9.910;2023-02-14T05:46:29;102792.20;;;-0.58;100.00
55733;BME280;41637;52.364;9.910;2023-02-14T05:48:56;102794.55;;;-0.61;100.00
55733;BME280;41637;52.364;9.910;2023-02-14T05:51:23;102798.61;;;-0.63;100.00
55733;BME280;41637;52.364;9.910;2023-02-14T05:53:50;102799.83;;;-0.63;100.00
55733;BME280;41637;52.364;9.910;2023-02-14T05:56:17;102798.80;;;-0.64;100.00
55733;BME280;41637;52.364;9.910;2023-02-14T05:58:44;102801.23;;;-0.64;100.00
55733;BME280;41637;52.364;9.910;2023-02-14T06:01:11;102801.37;;;-0.62;100.00
55733;BME280;41637;52.364;9.910;2023-02-14T06:03:38;102801.17;;;-0.62;100.00
55733;BME280;41637;52.364;9.910;2023-02-14T06:06:05;102804.98;;;-0.61;100.00
55733;BME280;41637;52.364;9.910;2023-02-14T06:08:32;102804.30;;;-0.62;100.00
55733;BME280;41637;52.364;9.910;2023-02-14T06:10:59;102804.93;;;-0.60;100.00
55733;BME280;41637;52.364;9.910;2023-02-14T06:13:26;102807.70;;;-0.59;100.00
55733;BME280;41637;52.364;9.910;2023-02-14T06:15:53;102805.90;;;-0.57;100.00
55733;BME280;41637;52.364;9.910;2023-02-14T06:18:20;102806.98;;;-0.58;100.00
55733;BME280;41637;52.364;9.910;2023-02-14T06:20:47;102804.52;;;-0.58;100.00
55733;BME280;41637;52.364;9.910;2023-02-14T06:23:14;102801.92;;;-0.58;100.00
55733;BME280;41637;52.364;9.910;2023-02-14T06:25:41;102797.80;;;-0.59;100.00
55733;BME280;41637;52.364;9.910;2023-02-14T06:28:09;102794.00;;;-0.60;100.00
55733;BME280;41637;52.364;9.910;2023-02-14T06:30:36;102792.56;;;-0.64;100.00
55733;BME280;41637;52.364;9.910;2023-02-14T06:33:03;102798.44;;;-0.68;100.00
55733;BME280;41637;52.364;9.910;2023-02-14T06:35:30;102797.80;;;-0.70;100.00
55733;BME280;41637;52.364;9.910;2023-02-14T06:37:57;102800.52;;;-0.73;100.00
55733;BME280;41637;52.364;9.910;2023-02-14T06:40:25;102804.84;;;-0.73;100.00
55733;BME280;41637;52.364;9.910;2023-02-14T06:42:51;102809.93;;;-0.74;100.00
55733;BME280;41637;52.364;9.910;2023-02-14T06:45:18;102814.16;;;-0.76;100.00
55733;BME280;41637;52.364;9.910;2023-02-14T06:47:48;102813.47;;;-0.76;100.00
55733;BME280;41637;52.364;9.910;2023-02-14T06:50:15;102816.80;;;-0.77;100.00
55733;BME280;41637;52.364;9.910;2023-02-14T06:52:42;102818.29;;;-0.75;100.00
55733;BME280;41637;52.364;9.910;2023-02-14T06:55:10;102819.61;;;-0.73;100.00
55733;BME280;41637;52.364;9.910;2023-02-14T06:57:39;102819.73;;;-0.71;100.00
55733;BME280;41637;52.364;9.910;2023-02-14T07:00:06;102821.62;;;-0.71;100.00
55733;BME280;41637;52.364;9.910;2023-02-14T07:02:37;102818.47;;;-0.70;100.00
55733;BME280;41637;52.364;9.910;2023-02-14T07:05:04;102818.41;;;-0.68;100.00
55733;BME280;41637;52.364;9.910;2023-02-14T07:07:44;102823.41;;;-0.67;100.00
55733;BME280;41637;52.364;9.910;2023-02-14T07:10:12;102821.68;;;-0.67;100.00
55733;BME280;41637;52.364;9.910;2023-02-14T07:12:41;102823.52;;;-0.65;100.00
55733;BME280;41637;52.364;9.910;2023-02-14T07:15:16;102822.67;;;-0.60;100.00
55733;BME280;41637;52.364;9.910;2023-02-14T07:17:43;102820.98;;;-0.56;100.00
55733;BME280;41637;52.364;9.910;2023-02-14T07:20:11;102823.98;;;-0.52;100.00
55733;BME280;41637;52.364;9.910;2023-02-14T07:22:38;102823.84;;;-0.48;100.00
55733;BME280;41637;52.364;9.910;2023-02-14T07:25:06;102825.61;;;-0.44;100.00
55733;BME280;41637;52.364;9.910;2023-02-14T07:27:33;102825.51;;;-0.41;100.00
55733;BME280;41637;52.364;9.910;2023-02-14T07:30:00;102826.33;;;-0.39;100.00
55733;BME280;41637;52.364;9.910;2023-02-14T07:32:27;102827.42;;;-0.36;100.00
55733;BME280;41637;52.364;9.910;2023-02-14T07:34:55;102827.48;;;-0.32;100.00
55733;BME280;41637;52.364;9.910;2023-02-14T07:37:22;102823.32;;;-0.27;100.00
55733;BME280;41637;52.364;9.910;2023-02-14T07:39:49;102822.54;;;-0.24;100.00
55733;BME280;41637;52.364;9.910;2023-02-14T07:42:16;102819.62;;;-0.21;100.00
55733;BME280;41637;52.364;9.910;2023-02-14T07:44:43;102814.89;;;-0.14;100.00
55733;BME280;41637;52.364;9.910;2023-02-14T07:47:16;102812.77;;;-0.09;100.00
55733;BME280;41637;52.364;9.910;2023-02-14T07:49:43;102810.81;;;-0.03;100.00
55733;BME280;41637;52.364;9.910;2023-02-14T07:52:10;102813.21;;;0.04;100.00
55733;BME280;41637;52.364;9.910;2023-02-14T07:54:37;102805.42;;;0.12;100.00
55733;BME280;41637;52.364;9.910;2023-02-14T07:57:05;102804.27;;;0.20;100.00
55733;BME280;41637;52.364;9.910;2023-02-14T07:59:32;102803.73;;;0.25;100.00
55733;BME280;41637;52.364;9.910;2023-02-14T08:01:59;102804.52;;;0.32;100.00
55733;BME280;41637;52.364;9.910;2023-02-14T08:04:26;102804.90;;;0.41;100.00
55733;BME280;41637;52.364;9.910;2023-02-14T08:06:53;102804.92;;;0.50;100.00
55733;BME280;41637;52.364;9.910;2023-02-14T08:09:20;102802.39;;;0.62;100.00
55733;BME280;41637;52.364;9.910;2023-02-14T08:11:52;102803.04;;;0.72;100.00
55733;BME280;41637;52.364;9.910;2023-02-14T08:14:38;102803.77;;;0.84;100.00
55733;BME280;41637;52.364;9.910;2023-02-14T08:17:05;102803.98;;;0.97;100.00
55733;BME280;41637;52.364;9.910;2023-02-14T08:19:33;102807.50;;;1.09;100.00
55733;BME280;41637;52.364;9.910;2023-02-14T08:22:00;102810.76;;;1.19;100.00
55733;BME280;41637;52.364;9.910;2023-02-14T08:24:26;102809.44;;;1.31;100.00
55733;BME280;41637;52.364;9.910;2023-02-14T08:26:54;102812.30;;;1.41;100.00
55733;BME280;41637;52.364;9.910;2023-02-14T08:29:21;102808.93;;;1.51;100.00
55733;BME280;41637;52.364;9.910;2023-02-14T08:31:48;102806.14;;;1.59;100.00
55733;BME280;41637;52.364;9.910;2023-02-14T08:34:16;102803.75;;;1.67;100.00
55733;BME280;41637;52.364;9.910;2023-02-14T08:36:42;102802.12;;;1.76;100.00
55733;BME280;41637;52.364;9.910;2023-02-14T08:39:09;102804.48;;;1.90;100.00
55733;BME280;41637;52.364;9.910;2023-02-14T08:41:36;102804.49;;;2.06;100.00
55733;BME280;41637;52.364;9.910;2023-02-14T08:44:03;102804.83;;;2.18;100.00
55733;BME280;41637;52.364;9.910;2023-02-14T08:46:30;102809.64;;;2.28;100.00
55733;BME280;41637;52.364;9.910;2023-02-14T08:48:57;102804.95;;;2.39;100.00
55733;BME280;41637;52.364;9.910;2023-02-14T08:51:23;102801.40;;;2.48;100.00
55733;BME280;41637;52.364;9.910;2023-02-14T08:53:51;102802.02;;;2.57;100.00
55733;BME280;41637;52.364;9.910;2023-02-14T08:56:18;102803.01;;;2.70;100.00
55733;BME280;41637;52.364;9.910;2023-02-14T08:58:51;102801.80;;;2.81;100.00
55733;BME280;41637;52.364;9.910;2023-02-14T09:01:18;102798.06;;;2.93;100.00
55733;BME280;41637;52.364;9.910;2023-02-14T09:03:45;102799.55;;;3.06;100.00
55733;BME280;41637;52.364;9.910;2023-02-14T09:06:14;102798.59;;;3.18;100.00
55733;BME280;41637;52.364;9.910;2023-02-14T09:08:44;102794.06;;;3.32;100.00
55733;BME280;41637;52.364;9.910;2023-02-14T09:11:20;102793.89;;;3.46;100.00
55733;BME280;41637;52.364;9.910;2023-02-14T09:13:48;102793.68;;;3.61;100.00
55733;BME280;41637;52.364;9.910;2023-02-14T09:16:17;102794.33;;;3.76;100.00
55733;BME280;41637;52.364;9.910;2023-02-14T09:18:46;102793.64;;;3.89;100.00
55733;BME280;41637;52.364;9.910;2023-02-14T09:21:16;102791.23;;;4.02;100.00
55733;BME280;41637;52.364;9.910;2023-02-14T09:23:43;102789.34;;;4.14;100.00
55733;BME280;41637;52.364;9.910;2023-02-14T09:26:12;102789.23;;;4.26;100.00
55733;BME280;41637;52.364;9.910;2023-02-14T09:28:39;102789.56;;;4.43;99.97
55733;BME280;41637;52.364;9.910;2023-02-14T09:31:13;102787.40;;;4.57;99.71
55733;BME280;41637;52.364;9.910;2023-02-14T09:33:41;102789.02;;;4.69;98.82
55733;BME280;41637;52.364;9.910;2023-02-14T09:36:08;102793.20;;;4.82;98.68
55733;BME280;41637;52.364;9.910;2023-02-14T09:38:38;102780.08;;;4.97;98.80
55733;BME280;41637;52.364;9.910;2023-02-14T09:41:07;102781.45;;;5.13;98.78
55733;BME280;41637;52.364;9.910;2023-02-14T09:46:38;102773.96;;;5.46;97.30
55733;BME280;41637;52.364;9.910;2023-02-14T09:49:14;102779.20;;;5.61;97.09
55733;BME280;41637;52.364;9.910;2023-02-14T09:51:46;102775.04;;;5.78;97.01
55733;BME280;41637;52.364;9.910;2023-02-14T09:54:19;102773.11;;;5.93;95.98
55733;BME280;41637;52.364;9.910;2023-02-14T09:57:06;102771.39;;;6.09;95.85
55733;BME280;41637;52.364;9.910;2023-02-14T09:59:42;102764.83;;;6.24;94.54
55733;BME280;41637;52.364;9.910;2023-02-14T10:05:16;102764.59;;;6.51;93.66
55733;BME280;41637;52.364;9.910;2023-02-14T10:08:06;102771.66;;;6.70;93.58
55733;BME280;41637;52.364;9.910;2023-02-14T10:15:40;102765.84;;;7.21;92.67
55733;BME280;41637;52.364;9.910;2023-02-14T10:18:13;102764.29;;;7.39;92.32
55733;BME280;41637;52.364;9.910;2023-02-14T10:20:49;102763.63;;;7.54;92.06
55733;BME280;41637;52.364;9.910;2023-02-14T10:23:44;102762.44;;;7.69;91.52
55733;BME280;41637;52.364;9.910;2023-02-14T10:26:18;102764.10;;;7.86;90.45
55733;BME280;41637;52.364;9.910;2023-02-14T10:28:48;102765.94;;;8.00;89.87
55733;BME280;41637;52.364;9.910;2023-02-14T10:31:26;102763.52;;;8.09;88.92
55733;BME280;41637;52.364;9.910;2023-02-14T10:34:14;102765.14;;;8.21;88.73
55733;BME280;41637;52.364;9.910;2023-02-14T10:39:50;102761.70;;;8.43;87.17
55733;BME280;41637;52.364;9.910;2023-02-14T10:42:45;102759.92;;;8.56;86.49
55733;BME280;41637;52.364;9.910;2023-02-14T10:45:21;102760.76;;;8.69;86.36
55733;BME280;41637;52.364;9.910;2023-02-14T10:50:49;102756.14;;;8.93;84.99
55733;BME280;41637;52.364;9.910;2023-02-14T10:53:26;102749.68;;;9.07;85.06
55733;BME280;41637;52.364;9.910;2023-02-14T10:58:31;102751.48;;;9.34;84.25
55733;BME280;41637;52.364;9.910;2023-02-14T11:01:00;102745.25;;;9.49;83.64
55733;BME280;41637;52.364;9.910;2023-02-14T11:03:29;102741.02;;;9.65;83.70
55733;BME280;41637;52.364;9.910;2023-02-14T11:05:56;102731.27;;;9.74;82.40
55733;BME280;41637;52.364;9.910;2023-02-14T11:08:34;102730.45;;;9.85;82.16
55733;BME280;41637;52.364;9.910;2023-02-14T11:11:24;102725.10;;;9.96;81.34
55733;BME280;41637;52.364;9.910;2023-02-14T11:13:52;102719.43;;;10.10;81.01
55733;BME280;41637;52.364;9.910;2023-02-14T11:16:37;102718.78;;;10.20;80.32
55733;BME280;41637;52.364;9.910;2023-02-14T11:19:14;102716.48;;;10.28;78.01
55733;BME280;41637;52.364;9.910;2023-02-14T11:21:45;102711.24;;;10.29;76.50
55733;BME280;41637;52.364;9.910;2023-02-14T11:24:36;102710.86;;;10.34;77.35
55733;BME280;41637;52.364;9.910;2023-02-14T11:29:47;102700.73;;;10.56;77.42
55733;BME280;41637;52.364;9.910;2023-02-14T11:32:29;102702.95;;;10.71;75.79
55733;BME280;41637;52.364;9.910;2023-02-14T11:35:19;102697.41;;;10.82;75.70
55733;BME280;41637;52.364;9.910;2023-02-14T11:37:51;102696.45;;;10.93;73.83
55733;BME280;41637;52.364;9.910;2023-02-14T11:40:36;102694.79;;;10.94;72.23
55733;BME280;41637;52.364;9.910;2023-02-14T11:45:41;102689.73;;;11.23;73.54
55733;BME280;41637;52.364;9.910;2023-02-14T11:48:26;102689.46;;;11.46;74.12
55733;BME280;41637;52.364;9.910;2023-02-14T11:51:08;102688.17;;;11.68;71.15
55733;BME280;41637;52.364;9.910;2023-02-14T11:56:09;102684.83;;;12.22;70.09
55733;BME280;41637;52.364;9.910;2023-02-14T11:58:39;102679.45;;;12.68;70.01
55733;BME280;41637;52.364;9.910;2023-02-14T12:01:11;102680.18;;;13.22;68.60
55733;BME280;41637;52.364;9.910;2023-02-14T12:03:44;102678.58;;;13.79;67.95
55733;BME280;41637;52.364;9.910;2023-02-14T12:06:25;102677.37;;;14.37;65.49
55733;BME280;41637;52.364;9.910;2023-02-14T12:12:14;102673.61;;;15.49;61.37
55733;BME280;41637;52.364;9.910;2023-02-14T12:14:41;102664.91;;;16.25;59.60
55733;BME280;41637;52.364;9.910;2023-02-14T12:17:24;102656.83;;;16.87;57.21
55733;BME280;41637;52.364;9.910;2023-02-14T12:20:03;102649.41;;;17.38;54.19
55733;BME280;41637;52.364;9.910;2023-02-14T12:25:37;102645.09;;;18.49;52.98
55733;BME280;41637;52.364;9.910;2023-02-14T12:28:12;102639.63;;;18.99;49.66
55733;BME280;41637;52.364;9.910;2023-02-14T12:30:42;102639.17;;;19.34;48.63
55733;BME280;41637;52.364;9.910;2023-02-14T12:33:16;102637.02;;;19.67;47.47
55733;BME280;41637;52.364;9.910;2023-02-14T12:43:52;102614.73;;;21.28;42.84
55733;BME280;41637;52.364;9.910;2023-02-14T12:46:34;102617.85;;;22.18;42.28
55733;BME280;41637;52.364;9.910;2023-02-14T12:52:02;102614.06;;;23.73;36.17
55733;BME280;41637;52.364;9.910;2023-02-14T12:54:58;102609.83;;;24.45;36.53
55733;BME280;41637;52.364;9.910;2023-02-14T13:03:09;102596.50;;;26.07;33.23
55733;BME280;41637;52.364;9.910;2023-02-14T13:14:06;102585.45;;;27.50;30.37
55733;BME280;41637;52.364;9.910;2023-02-14T13:16:54;102581.76;;;27.71;29.24
55733;BME280;41637;52.364;9.910;2023-02-14T13:22:28;102577.19;;;28.57;28.01
55733;BME280;41637;52.364;9.910;2023-02-14T13:24:59;102572.36;;;28.80;28.45
55733;BME280;41637;52.364;9.910;2023-02-14T13:27:30;102566.66;;;29.10;28.08
55733;BME280;41637;52.364;9.910;2023-02-14T13:30:04;102565.95;;;29.28;27.48
55733;BME280;41637;52.364;9.910;2023-02-14T13:32:38;102560.77;;;29.35;27.54
55733;BME280;41637;52.364;9.910;2023-02-14T13:35:06;102554.35;;;29.64;27.53
55733;BME280;41637;52.364;9.910;2023-02-14T13:37:34;102554.27;;;29.75;26.93
55733;BME280;41637;52.364;9.910;2023-02-14T13:40:07;102549.98;;;29.74;27.03
55733;BME280;41637;52.364;9.910;2023-02-14T13:48:26;102542.77;;;29.94;26.56
55733;BME280;41637;52.364;9.910;2023-02-14T13:53:42;102537.11;;;30.13;26.41
55733;BME280;41637;52.364;9.910;2023-02-14T13:58:55;102535.77;;;30.31;26.08
55733;BME280;41637;52.364;9.910;2023-02-14T14:01:35;102531.80;;;30.50;26.42
55733;BME280;41637;52.364;9.910;2023-02-14T14:17:37;102522.20;;;29.39;26.72
55733;BME280;41637;52.364;9.910;2023-02-14T14:22:56;102531.88;;;28.49;28.01
55733;BME280;41637;52.364;9.910;2023-02-14T14:25:36;102527.83;;;28.23;28.41
55733;BME280;41637;52.364;9.910;2023-02-14T14:28:16;102530.04;;;28.04;28.62
55733;BME280;41637;52.364;9.910;2023-02-14T14:30:43;102531.11;;;27.81;28.63
55733;BME280;41637;52.364;9.910;2023-02-14T14:33:22;102530.42;;;27.75;28.82
55733;BME280;41637;52.364;9.910;2023-02-14T14:35:55;102527.11;;;27.85;28.54
55733;BME280;41637;52.364;9.910;2023-02-14T14:38:24;102526.02;;;27.98;28.43
55733;BME280;41637;52.364;9.910;2023-02-14T14:40:52;102524.77;;;28.19;28.35
55733;BME280;41637;52.364;9.910;2023-02-14T14:43:32;102524.80;;;28.28;28.10
55733;BME280;41637;52.364;9.910;2023-02-14T14:46:01;102521.98;;;28.19;28.04
55733;BME280;41637;52.364;9.910;2023-02-14T14:48:37;102514.27;;;28.11;28.08
55733;BME280;41637;52.364;9.910;2023-02-14T14:51:07;102519.49;;;27.99;28.34
55733;BME280;41637;52.364;9.910;2023-02-14T14:56:36;102518.29;;;27.50;28.92
55733;BME280;41637;52.364;9.910;2023-02-14T15:01:51;102508.20;;;26.79;29.61
55733;BME280;41637;52.364;9.910;2023-02-14T15:04:31;102503.19;;;26.44;30.18
55733;BME280;41637;52.364;9.910;2023-02-14T15:07:31;102498.61;;;25.73;30.71
55733;BME280;41637;52.364;9.910;2023-02-14T15:09:59;102499.38;;;25.18;31.61
55733;BME280;41637;52.364;9.910;2023-02-14T15:12:25;102494.83;;;24.94;32.06
55733;BME280;41637;52.364;9.910;2023-02-14T15:15:14;102493.61;;;24.57;32.41
55733;BME280;41637;52.364;9.910;2023-02-14T15:17:43;102494.88;;;24.32;32.84
55733;BME280;41637;52.364;9.910;2023-02-14T15:20:21;102495.46;;;24.08;33.28